createdAt,value
2024-05-09T00:01:38.866Z,102109.63
2024-05-09T00:06:41.065Z,102111.66
2024-05-09T00:11:43.223Z,102115.03
2024-05-09T00:16:45.380Z,102115.81
2024-05-09T00:21:47.632Z,102106.97
2024-05-09T00:26:49.560Z,102107.06
2024-05-09T00:31:51.607Z,102112.19
2024-05-09T00:36:53.588Z,102107.44
2024-05-09T00:41:55.495Z,102112.25
2024-05-09T00:46:57.742Z,102122.34
2024-05-09T00:51:59.876Z,102117.72
2024-05-09T00:57:03.436Z,102111.47
2024-05-09T01:02:06.825Z,102112.06
2024-05-09T01:07:09.121Z,102105.78
2024-05-09T01:12:11.415Z,102115.19
2024-05-09T01:17:15.215Z,102114.13
2024-05-09T01:22:17.158Z,102112.22
2024-05-09T01:27:19.098Z,102106.09
2024-05-09T01:32:21.450Z,102108.31
2024-05-09T01:37:23.645Z,102117.69
2024-05-09T01:42:25.566Z,102122.53
2024-05-09T01:47:27.710Z,102109.25
2024-05-09T01:52:29.718Z,102116.81
2024-05-09T01:57:31.632Z,102102.59
2024-05-09T02:02:33.612Z,102100.69
2024-05-09T02:07:35.686Z,102107.44
2024-05-09T02:12:39.658Z,102102.81
2024-05-09T02:17:41.971Z,102105.69
2024-05-09T02:22:44.083Z,102101.34
2024-05-09T02:27:46.012Z,102087.41
2024-05-09T02:32:48.275Z,102094.94
2024-05-09T02:37:50.333Z,102092.91
2024-05-09T02:42:52.306Z,102088.94
2024-05-09T02:47:54.504Z,102095.94
2024-05-09T02:52:56.690Z,102091.13
2024-05-09T02:57:58.650Z,102093.22
2024-05-09T03:03:00.740Z,102095.28
2024-05-09T03:08:03.014Z,102098.56
2024-05-09T03:13:08.303Z,102099.28
2024-05-09T03:18:10.860Z,102092.16
2024-05-09T03:23:13.378Z,102097.47
2024-05-09T03:28:15.389Z,102097.91
2024-05-09T03:33:19.264Z,102097.22
2024-05-09T03:38:22.375Z,102093.38
2024-05-09T03:43:24.415Z,102092.16
2024-05-09T03:48:26.515Z,102085.16
2024-05-09T03:53:28.640Z,102088.31
2024-05-09T03:58:30.736Z,102090.22
2024-05-09T04:03:34.301Z,102091.47
2024-05-09T04:08:36.536Z,102098.03
2024-05-09T04:13:38.570Z,102099.00
2024-05-09T04:18:40.616Z,102099.13
2024-05-09T04:23:42.833Z,102102.81
2024-05-09T04:28:44.805Z,102116.44
2024-05-09T04:33:46.943Z,102117.25
2024-05-09T04:38:48.917Z,102119.44
2024-05-09T04:43:51.008Z,102110.06
2024-05-09T04:48:53.814Z,102117.44
2024-05-09T04:53:55.847Z,102117.06
2024-05-09T04:58:57.826Z,102120.00
2024-05-09T05:03:59.960Z,102123.66
2024-05-09T05:09:01.996Z,102121.72
2024-05-09T05:14:03.983Z,102117.34
2024-05-09T05:19:09.106Z,102116.09
2024-05-09T05:24:12.833Z,102125.94
2024-05-09T05:29:16.438Z,102120.53
2024-05-09T05:34:19.078Z,102121.94
2024-05-09T05:39:20.987Z,102121.78
2024-05-09T05:44:22.966Z,102120.09
2024-05-09T05:49:24.980Z,102122.59
2024-05-09T05:54:26.912Z,102129.63
2024-05-09T05:59:29.424Z,102135.28
2024-05-09T06:04:31.509Z,102137.03
2024-05-09T06:09:33.877Z,102138.19
2024-05-09T06:14:35.842Z,102141.19
2024-05-09T06:19:38.005Z,102138.38
2024-05-09T06:24:39.996Z,102143.91
2024-05-09T06:29:41.956Z,102139.03
2024-05-09T06:34:44.286Z,102139.44
2024-05-09T06:39:46.478Z,102141.75
2024-05-09T06:44:48.408Z,102140.88
2024-05-09T06:49:50.491Z,102148.34
2024-05-09T06:54:52.463Z,102147.50
2024-05-09T06:59:56.483Z,102159.50
2024-05-09T07:04:58.539Z,102150.00
2024-05-09T07:10:00.585Z,102152.41
2024-05-09T07:15:02.596Z,102150.78
2024-05-09T07:20:06.832Z,102152.47
2024-05-09T07:25:10.790Z,102146.72
2024-05-09T07:30:16.709Z,102149.13
2024-05-09T07:35:25.287Z,102140.56
2024-05-09T07:40:35.006Z,102147.88
2024-05-09T07:45:48.934Z,102139.19
2024-05-09T07:52:38.804Z,102129.66
2024-05-09T07:56:18.325Z,102133.03
2024-05-09T08:01:21.484Z,102135.84
2024-05-09T08:06:23.799Z,102122.44
2024-05-09T08:11:25.828Z,102124.09
2024-05-09T08:16:27.941Z,102116.63
2024-05-09T08:21:30.028Z,102113.22
2024-05-09T08:26:32.031Z,102100.91
2024-05-09T08:31:38.012Z,102087.78
2024-05-09T08:36:40.911Z,102086.97
2024-05-09T08:41:43.242Z,102090.22
2024-05-09T08:46:48.170Z,102086.88
2024-05-09T08:51:50.129Z,102080.97
2024-05-09T08:56:52.474Z,102080.72
2024-05-09T09:01:55.056Z,102072.84
2024-05-09T09:06:59.245Z,102070.34
2024-05-09T09:12:02.327Z,102061.94
2024-05-09T09:17:14.255Z,102053.88
2024-05-09T09:22:16.384Z,102046.25
2024-05-09T09:27:18.329Z,102038.53
2024-05-09T09:32:20.300Z,102026.28
2024-05-09T09:37:23.685Z,102026.91
2024-05-09T09:42:30.328Z,102021.69
2024-05-09T09:47:32.789Z,102015.91
2024-05-09T09:52:35.287Z,102006.53
2024-05-09T09:57:37.970Z,102003.22
2024-05-09T10:02:40.417Z,101985.97
2024-05-09T10:07:43.342Z,101983.56
2024-05-09T10:12:52.802Z,101973.22
2024-05-09T10:17:55.002Z,101976.41
2024-05-09T10:22:56.995Z,101967.22
2024-05-09T10:27:59.070Z,101950.06
2024-05-09T10:33:01.119Z,101950.06
2024-05-09T10:38:06.457Z,101949.31
2024-05-09T10:43:09.412Z,101938.59
2024-05-09T10:48:12.058Z,101934.31
2024-05-09T10:53:14.003Z,101922.13
2024-05-09T10:58:18.755Z,101914.19
2024-05-09T11:03:21.780Z,101903.34
2024-05-09T11:08:24.020Z,101908.59
2024-05-09T11:13:29.976Z,101892.19
2024-05-09T11:18:36.460Z,101886.31
2024-05-09T11:23:40.865Z,101873.09
2024-05-09T11:28:46.195Z,101872.19
2024-05-09T11:33:48.259Z,101870.44
2024-05-09T11:38:50.355Z,101867.91
2024-05-09T11:43:52.304Z,101861.00
2024-05-09T11:48:54.488Z,101853.44
2024-05-09T11:53:56.505Z,101855.59
2024-05-09T11:58:58.449Z,101856.88
2024-05-09T12:04:00.627Z,101835.91
2024-05-09T12:09:02.940Z,101843.09
2024-05-09T12:14:04.929Z,101828.78
2024-05-09T12:19:06.983Z,101815.94
2024-05-09T12:24:08.943Z,101817.84
2024-05-09T12:29:10.875Z,101814.03
2024-05-09T12:34:12.881Z,101807.59
2024-05-09T12:39:14.846Z,101803.06
2024-05-09T12:44:16.767Z,101801.34
2024-05-09T12:49:19.463Z,101801.50
2024-05-09T12:54:22.115Z,101792.09
2024-05-09T12:59:24.052Z,101786.47
2024-05-09T13:04:26.242Z,101778.44
2024-05-09T13:09:28.341Z,101759.91
2024-05-09T13:14:30.305Z,101763.44
2024-05-09T13:19:32.271Z,101762.09
2024-05-09T13:24:34.281Z,101760.78
2024-05-09T13:29:36.293Z,101758.97
2024-05-09T13:34:38.313Z,101753.34
2024-05-09T13:39:40.348Z,101743.63
2024-05-09T13:44:42.308Z,101751.19
2024-05-09T13:49:44.356Z,101736.63
2024-05-09T13:54:46.404Z,101731.78
2024-05-09T13:59:48.360Z,101729.03
2024-05-09T14:04:50.415Z,101719.34
2024-05-09T14:09:52.478Z,101711.97
2024-05-09T14:14:54.419Z,101709.47
2024-05-09T14:19:56.350Z,101706.03
2024-05-09T14:24:58.327Z,101702.06
2024-05-09T14:30:00.483Z,101696.72
2024-05-09T14:35:02.557Z,101686.75
2024-05-09T14:40:06.972Z,101699.69
2024-05-09T14:45:09.466Z,101695.44
2024-05-09T14:50:19.302Z,101685.25
2024-05-09T14:55:25.852Z,101686.00
2024-05-09T15:00:33.272Z,101679.41
2024-05-09T15:05:37.935Z,101670.28
2024-05-09T15:10:40.090Z,101669.22
2024-05-09T15:15:42.699Z,101644.41
2024-05-09T15:20:45.322Z,101648.31
2024-05-09T15:25:47.787Z,101642.09
2024-05-09T15:30:49.774Z,101641.03
2024-05-09T15:35:51.990Z,101636.66
2024-05-09T15:40:54.132Z,101631.84
2024-05-09T15:45:56.176Z,101621.38
2024-05-09T15:50:58.251Z,101624.75
2024-05-09T15:56:00.339Z,101625.63
2024-05-09T16:01:02.366Z,101618.41
2024-05-09T16:06:04.482Z,101613.28
2024-05-09T16:11:06.739Z,101618.13
2024-05-09T16:16:08.811Z,101611.44
2024-05-09T16:21:10.808Z,101607.97
2024-05-09T16:26:12.749Z,101607.63
2024-05-09T16:31:14.754Z,101606.13
2024-05-09T16:36:16.688Z,101601.81
2024-05-09T16:41:19.728Z,101592.59
2024-05-09T16:46:21.760Z,101593.03
2024-05-09T16:51:24.124Z,101595.09
2024-05-09T16:56:26.404Z,101595.59
2024-05-09T17:01:28.752Z,101598.28
2024-05-09T17:06:30.817Z,101603.72
2024-05-09T17:11:34.425Z,101600.00
2024-05-09T17:16:36.452Z,101596.56
2024-05-09T17:21:38.502Z,101601.28
2024-05-09T17:26:40.438Z,101604.88
2024-05-09T17:31:42.823Z,101613.75
2024-05-09T17:36:44.917Z,101612.81
2024-05-09T17:41:46.888Z,101607.06
2024-05-09T17:46:48.803Z,101607.38
2024-05-09T17:51:51.297Z,101607.16
2024-05-09T17:56:53.234Z,101607.25
2024-05-09T18:01:55.244Z,101604.56
2024-05-09T18:06:57.244Z,101608.44
2024-05-09T18:11:59.273Z,101617.03
2024-05-09T18:17:01.421Z,101614.69
2024-05-09T18:22:03.366Z,101618.34
2024-05-09T18:27:05.492Z,101618.06
2024-05-09T18:32:07.749Z,101618.13
2024-05-09T18:37:10.198Z,101616.41
2024-05-09T18:42:12.225Z,101620.91
2024-05-09T18:47:15.987Z,101622.66
2024-05-09T18:52:19.515Z,101621.28
2024-05-09T18:57:21.496Z,101630.34
2024-05-09T19:02:23.491Z,101634.69
2024-05-09T19:07:25.537Z,101631.13
2024-05-09T19:12:27.466Z,101637.94
2024-05-09T19:17:29.708Z,101640.44
2024-05-09T19:22:32.118Z,101648.06
2024-05-09T19:27:34.184Z,101647.84
2024-05-09T19:32:36.338Z,101655.44
2024-05-09T19:37:38.899Z,101662.16
2024-05-09T19:42:41.463Z,101665.22
2024-05-09T19:47:43.548Z,101677.97
2024-05-09T19:52:45.569Z,101680.81
2024-05-09T19:57:48.032Z,101673.28
2024-05-09T20:02:50.179Z,101681.13
2024-05-09T20:07:52.171Z,101683.28
2024-05-09T20:12:54.098Z,101690.97
2024-05-09T20:17:56.230Z,101700.81
2024-05-09T20:22:58.335Z,101698.91
2024-05-09T20:28:00.385Z,101714.59
2024-05-09T20:33:03.619Z,101713.59
2024-05-09T20:38:06.728Z,101713.00
2024-05-09T20:43:09.926Z,101715.28
2024-05-09T20:48:12.518Z,101723.41
2024-05-09T20:53:15.376Z,101717.72
2024-05-09T20:58:17.676Z,101709.53
2024-05-09T21:03:19.678Z,101703.19
2024-05-09T21:08:22.765Z,101706.06
2024-05-09T21:13:25.570Z,101704.75
2024-05-09T21:18:27.624Z,101705.97
2024-05-09T21:23:29.548Z,101704.97
2024-05-09T21:28:31.560Z,101709.13
2024-05-09T21:33:34.039Z,101700.75
2024-05-09T21:38:36.111Z,101702.22
2024-05-09T21:43:38.397Z,101705.75
2024-05-09T21:48:40.498Z,101707.41
2024-05-09T21:53:42.486Z,101702.09
2024-05-09T21:58:44.402Z,101706.53
2024-05-09T22:03:46.481Z,101705.38
2024-05-09T22:08:48.474Z,101706.00
2024-05-09T22:13:50.460Z,101705.91
2024-05-09T22:18:52.471Z,101705.84
2024-05-09T22:23:54.427Z,101703.22
2024-05-09T22:28:56.362Z,101697.88
2024-05-09T22:33:58.382Z,101711.22
2024-05-09T22:39:00.420Z,101705.59
2024-05-09T22:44:02.503Z,101709.09
2024-05-09T22:49:04.632Z,101709.50
2024-05-09T22:54:06.786Z,101710.53
2024-05-09T22:59:08.708Z,101701.97
2024-05-09T23:04:10.803Z,101702.69
2024-05-09T23:09:12.788Z,101711.84
2024-05-09T23:14:14.807Z,101711.56
2024-05-09T23:19:16.759Z,101712.72
2024-05-09T23:24:18.703Z,101706.72
2024-05-09T23:29:20.940Z,101709.38
2024-05-09T23:34:23.118Z,101714.66
2024-05-09T23:39:25.108Z,101717.63
2024-05-09T23:44:27.021Z,101715.34
2024-05-09T23:49:29.007Z,101713.72
2024-05-09T23:54:30.939Z,101708.22
2024-05-09T23:59:32.871Z,101703.44
